createdAt,value
2018-04-23T00:00:43.133Z,21.5
2018-04-23T00:01:33.203Z,21.5
2018-04-23T00:02:22.997Z,21.4
2018-04-23T00:03:13.058Z,21.5
2018-04-23T00:04:03.120Z,21.5
2018-04-23T00:04:53.182Z,21.5
2018-04-23T00:05:43.553Z,21.5
2018-04-23T00:06:33.599Z,21.4
2018-04-23T00:07:23.665Z,21.4
2018-04-23T00:08:13.724Z,21.4
2018-04-23T00:09:03.775Z,21.4
2018-04-23T00:09:53.846Z,21.4
2018-04-23T00:10:43.918Z,21.4
2018-04-23T00:11:33.700Z,21.4
2018-04-23T00:12:23.765Z,21.4
2018-04-23T00:13:14.098Z,21.4
2018-04-23T00:14:04.175Z,21.4
2018-04-23T00:14:54.248Z,21.4
2018-04-23T00:15:44.033Z,21.4
2018-04-23T00:16:34.085Z,21.4
2018-04-23T00:17:24.416Z,21.4
2018-04-23T00:18:14.501Z,21.4
2018-04-23T00:19:04.288Z,21.4
2018-04-23T00:19:54.619Z,21.4
2018-04-23T00:20:44.700Z,21.4
2018-04-23T00:21:34.765Z,21.4
2018-04-23T00:22:24.808Z,21.4
2018-04-23T00:23:14.864Z,21.4
2018-04-23T00:24:04.940Z,21.3
2018-04-23T00:24:54.729Z,21.4
2018-04-23T00:25:45.058Z,21.3
2018-04-23T00:26:35.128Z,21.3
2018-04-23T00:27:25.208Z,21.3
2018-04-23T00:28:15.253Z,21.3
2018-04-23T00:29:05.327Z,21.3
2018-04-23T00:29:55.375Z,21.3
2018-04-23T00:30:45.460Z,21.3
2018-04-23T00:31:35.230Z,21.3
2018-04-23T00:32:25.005Z,21.3
2018-04-23T00:33:15.634Z,21.3
2018-04-23T00:34:05.700Z,21.3
2018-04-23T00:34:55.230Z,21.3
2018-04-23T00:35:45.822Z,21.3
2018-04-23T00:36:35.895Z,21.3
2018-04-23T00:37:25.972Z,21.3
2018-04-23T00:38:16.017Z,21.3
2018-04-23T00:39:06.094Z,21.3
2018-04-23T00:39:56.135Z,21.3
2018-04-23T00:40:46.201Z,21.3
2018-04-23T00:41:36.273Z,21.2
2018-04-23T00:42:26.348Z,21.3
2018-04-23T00:43:16.123Z,21.3
2018-04-23T00:44:06.464Z,21.2
2018-04-23T00:44:56.524Z,21.2
2018-04-23T00:45:46.586Z,21.2
2018-04-23T00:46:36.652Z,21.2
2018-04-23T00:47:26.432Z,21.2
2018-04-23T00:48:16.214Z,21.2
2018-04-23T00:49:06.853Z,21.2
2018-04-23T00:57:27.483Z,21.1
2018-04-23T00:59:07.622Z,21.1
2018-04-23T00:59:57.699Z,21.1
2018-04-23T01:00:47.752Z,21.1
2018-04-23T01:01:37.518Z,21.1
2018-04-23T01:02:27.676Z,21.1
2018-04-23T01:03:17.939Z,21.1
2018-04-23T01:04:07.996Z,21.1
2018-04-23T01:04:58.078Z,21.1
2018-04-23T01:05:48.117Z,21
2018-04-23T01:06:38.187Z,21.1
2018-04-23T01:07:27.695Z,21.1
2018-04-23T01:08:18.323Z,21.1
2018-04-23T01:09:08.090Z,21.1
2018-04-23T01:09:58.444Z,21
2018-04-23T01:10:48.521Z,21
2018-04-23T01:11:38.278Z,21
2018-04-23T01:12:28.653Z,21
2018-04-23T01:13:18.421Z,21
2018-04-23T01:14:08.773Z,21
2018-04-23T01:14:58.828Z,21
2018-04-23T01:15:48.606Z,21
2018-04-23T01:16:38.677Z,21
2018-04-23T01:17:29.062Z,21
2018-04-23T01:18:19.085Z,20.9
2018-04-23T01:19:09.140Z,20.9
2018-04-23T01:19:59.212Z,20.9
2018-04-23T01:20:49.268Z,20.9
2018-04-23T01:21:39.335Z,20.9
2018-04-23T01:22:29.403Z,20.9
2018-04-23T01:23:19.470Z,20.9
2018-04-23T01:24:09.523Z,20.9
2018-04-23T01:24:59.585Z,20.9
2018-04-23T01:25:49.658Z,20.9
2018-04-23T01:26:39.717Z,20.9
2018-04-23T01:27:29.782Z,20.9
2018-04-23T01:28:19.564Z,20.9
2018-04-23T01:29:09.918Z,20.9
2018-04-23T01:29:59.989Z,20.9
2018-04-23T01:30:50.028Z,20.9
2018-04-23T01:31:40.108Z,20.9
2018-04-23T01:32:30.165Z,20.9
2018-04-23T01:33:19.953Z,20.9
2018-04-23T01:34:10.292Z,20.9
2018-04-23T01:35:00.087Z,20.9
2018-04-23T01:35:50.144Z,20.9
2018-04-23T01:36:40.492Z,20.8
2018-04-23T01:37:30.551Z,20.8
2018-04-23T01:38:20.613Z,20.9
2018-04-23T01:39:10.732Z,20.8
2018-04-23T01:40:00.735Z,20.8
2018-04-23T01:40:50.800Z,20.8
2018-04-23T01:41:40.866Z,20.8
2018-04-23T01:42:30.934Z,20.8
2018-04-23T01:43:20.999Z,20.8
2018-04-23T01:44:10.778Z,20.8
2018-04-23T01:45:01.128Z,20.8
2018-04-23T01:45:51.183Z,20.8
2018-04-23T01:46:41.253Z,20.8
2018-04-23T01:47:31.044Z,20.8
2018-04-23T01:48:21.380Z,20.8
2018-04-23T01:49:11.460Z,20.8
2018-04-23T01:50:01.508Z,20.8
2018-04-23T01:50:51.580Z,20.8
2018-04-23T01:51:42.073Z,20.8
2018-04-23T01:52:31.868Z,20.8
2018-04-23T01:53:21.775Z,20.8
2018-04-23T01:54:11.840Z,20.8
2018-04-23T01:55:01.948Z,20.7
2018-04-23T01:55:51.952Z,20.8
2018-04-23T01:56:42.010Z,20.8
2018-04-23T01:57:31.810Z,20.7
2018-04-23T01:58:22.146Z,20.8
2018-04-23T01:59:12.288Z,20.8
2018-04-23T02:00:02.280Z,20.7
2018-04-23T02:00:52.059Z,20.7
2018-04-23T02:01:42.399Z,20.7
2018-04-23T02:02:32.184Z,20.7
2018-04-23T02:03:22.251Z,20.7
2018-04-23T02:04:12.592Z,20.7
2018-04-23T02:05:02.662Z,20.7
2018-04-23T02:05:52.714Z,20.7
2018-04-23T02:06:42.781Z,20.7
2018-04-23T02:07:32.849Z,20.7
2018-04-23T02:08:22.920Z,20.6
2018-04-23T02:09:12.974Z,20.7
2018-04-23T02:10:03.499Z,20.7
2018-04-23T02:10:53.093Z,20.6
2018-04-23T02:11:42.876Z,20.6
2018-04-23T02:12:33.224Z,20.6
2018-04-23T02:13:23.292Z,20.6
2018-04-23T02:14:13.373Z,20.6
2018-04-23T02:15:03.416Z,20.6
2018-04-23T02:15:53.483Z,20.6
2018-04-23T02:16:43.553Z,20.6
2018-04-23T02:17:33.607Z,20.6
2018-04-23T02:18:23.673Z,20.6
2018-04-23T02:19:13.732Z,20.6
2018-04-23T02:20:03.800Z,20.6
2018-04-23T02:20:53.859Z,20.6
2018-04-23T02:21:43.659Z,20.6
2018-04-23T02:22:33.711Z,20.6
2018-04-23T02:23:24.059Z,20.6
2018-04-23T02:24:14.120Z,20.6
2018-04-23T02:25:03.909Z,20.6
2018-04-23T02:25:54.248Z,20.6
2018-04-23T02:26:44.307Z,20.6
2018-04-23T02:27:34.096Z,20.6
2018-04-23T02:28:24.447Z,20.6
2018-04-23T02:29:14.517Z,20.6
2018-04-23T02:30:04.284Z,20.5
2018-04-23T02:30:54.630Z,20.6
2018-04-23T02:31:44.423Z,20.5
2018-04-23T02:32:34.218Z,20.5
2018-04-23T02:33:24.828Z,20.5
2018-04-23T02:34:14.915Z,20.5
2018-04-23T02:35:04.956Z,20.5
2018-04-23T02:35:54.770Z,20.5
2018-04-23T02:36:45.275Z,20.5
2018-04-23T02:37:35.184Z,20.5
2018-04-23T02:38:25.679Z,20.4
2018-04-23T02:39:15.000Z,20.5
2018-04-23T02:40:05.346Z,20.4
2018-04-23T02:40:55.404Z,20.4
2018-04-23T02:41:45.487Z,20.4
2018-04-23T02:42:35.595Z,20.4
2018-04-23T02:43:25.312Z,20.5
2018-04-23T02:44:15.676Z,20.4
2018-04-23T02:45:05.726Z,20.4
2018-04-23T02:45:55.789Z,20.4
2018-04-23T02:46:45.849Z,20.4
2018-04-23T02:47:35.644Z,20.4
2018-04-23T02:48:25.413Z,20.4
2018-04-23T02:49:16.061Z,20.4
2018-04-23T02:50:05.834Z,20.4
2018-04-23T02:50:56.624Z,20.4
2018-04-23T02:51:46.244Z,20.4
2018-04-23T02:52:36.021Z,20.4
2018-04-23T02:53:25.798Z,20.4
2018-04-23T02:54:16.426Z,20.4
2018-04-23T02:55:05.924Z,20.4
2018-04-23T02:55:56.278Z,20.4
2018-04-23T02:56:46.608Z,20.4
2018-04-23T02:57:36.421Z,20.4
2018-04-23T02:58:26.468Z,20.4
2018-04-23T02:59:16.807Z,20.4
2018-04-23T03:00:06.884Z,20.4
2018-04-23T03:00:56.668Z,20.4
2018-04-23T03:01:46.991Z,20.4
2018-04-23T03:02:37.225Z,20.4
2018-04-23T03:03:26.838Z,20.4
2018-04-23T03:04:17.185Z,20.4
2018-04-23T03:05:07.257Z,20.3
2018-04-23T03:05:57.320Z,20.3
2018-04-23T03:06:47.371Z,20.3
2018-04-23T03:07:37.448Z,20.3
2018-04-23T03:08:27.519Z,20.3
2018-04-23T03:09:17.565Z,20.3
2018-04-23T03:10:07.356Z,20.3
2018-04-23T03:10:57.701Z,20.3
2018-04-23T03:11:47.753Z,20.3
2018-04-23T03:12:37.817Z,20.3
2018-04-23T03:13:27.901Z,20.3
2018-04-23T03:14:17.957Z,20.3
2018-04-23T03:15:08.029Z,20.3
2018-04-23T03:15:58.079Z,20.3
2018-04-23T03:16:47.867Z,20.3
2018-04-23T03:17:38.194Z,20.3
2018-04-23T03:18:28.270Z,20.3
2018-04-23T03:19:18.335Z,20.3
2018-04-23T03:20:08.858Z,20.3
2018-04-23T03:20:58.464Z,20.3
2018-04-23T03:21:48.524Z,20.3
2018-04-23T03:22:38.582Z,20.3
2018-04-23T03:23:28.661Z,20.3
2018-04-23T03:24:18.444Z,20.3
2018-04-23T03:25:08.790Z,20.3
2018-04-23T03:25:58.897Z,20.3
2018-04-23T03:26:48.906Z,20.3
2018-04-23T03:27:38.696Z,20.3
2018-04-23T03:28:29.029Z,20.3
2018-04-23T03:29:19.097Z,20.2
2018-04-23T03:30:09.169Z,20.3
2018-04-23T03:30:59.244Z,20.3
2018-04-23T03:31:49.294Z,20.2
2018-04-23T03:32:39.348Z,20.2
2018-04-23T03:33:29.411Z,20.2
2018-04-23T03:34:19.473Z,20.2
2018-04-23T03:35:09.262Z,20.2
2018-04-23T03:35:59.607Z,20.2
2018-04-23T03:37:39.751Z,20.2
2018-04-23T03:38:29.799Z,20.2
2018-04-23T03:39:19.864Z,20.2
2018-04-23T03:40:09.645Z,20.2
2018-04-23T03:40:59.987Z,20.2
2018-04-23T03:41:50.048Z,20.2
2018-04-23T03:42:40.126Z,20.2
2018-04-23T03:43:29.901Z,20.2
2018-04-23T03:44:20.248Z,20.1
2018-04-23T03:45:10.300Z,20.1
2018-04-23T03:46:00.385Z,20.2
2018-04-23T03:46:50.160Z,20.1
2018-04-23T03:47:40.504Z,20.2
2018-04-23T03:48:30.566Z,20.1
2018-04-23T03:49:20.625Z,20.1
2018-04-23T03:50:10.687Z,20.1
2018-04-23T03:51:00.750Z,20.1
2018-04-23T03:51:50.817Z,20.1
2018-04-23T03:52:40.875Z,20.1
2018-04-23T03:53:30.948Z,20.1
2018-04-23T03:54:21.002Z,20.1
2018-04-23T03:55:11.067Z,20.1
2018-04-23T03:56:01.154Z,20.1
2018-04-23T03:56:51.197Z,20.1
2018-04-23T03:57:41.052Z,20.1
2018-04-23T03:58:31.065Z,20.1
2018-04-23T03:59:21.390Z,20.1
2018-04-23T04:00:11.473Z,20.1
2018-04-23T04:01:01.517Z,20.1
2018-04-23T04:01:51.321Z,20.1
2018-04-23T04:02:41.644Z,20.1
2018-04-23T04:03:31.708Z,20.1
2018-04-23T04:04:21.772Z,20.1
2018-04-23T04:05:11.831Z,20.1
2018-04-23T04:06:01.633Z,20.1
2018-04-23T04:06:51.962Z,20.1
2018-04-23T04:07:41.736Z,20.1
2018-04-23T04:08:32.095Z,20.1
2018-04-23T04:09:22.229Z,20.1
2018-04-23T04:10:12.232Z,20.1
2018-04-23T04:11:02.011Z,20.1
2018-04-23T04:11:52.352Z,20.1
2018-04-23T04:12:42.139Z,20.1
2018-04-23T04:13:32.192Z,20.1
2018-04-23T04:14:22.542Z,20.1
2018-04-23T04:15:12.596Z,20.1
2018-04-23T04:16:02.693Z,20.1
2018-04-23T04:16:52.854Z,20.1
2018-04-23T04:17:42.824Z,20.1
2018-04-23T04:18:32.869Z,20.1
2018-04-23T04:19:22.936Z,20.1
2018-04-23T04:20:12.987Z,20.1
2018-04-23T04:21:03.063Z,20.1
2018-04-23T04:21:53.130Z,20.1
2018-04-23T04:22:43.193Z,20.1
2018-04-23T04:23:33.247Z,20.1
2018-04-23T04:24:23.294Z,20.1
2018-04-23T04:25:13.369Z,20.1
2018-04-23T04:26:03.441Z,20.1
2018-04-23T04:26:53.220Z,20.2
2018-04-23T04:27:43.267Z,20.3
2018-04-23T04:28:33.632Z,20.3
2018-04-23T04:29:23.409Z,20.3
2018-04-23T04:30:13.474Z,20.3
2018-04-23T04:31:03.827Z,20.3
2018-04-23T04:31:53.879Z,20.3
2018-04-23T04:32:43.952Z,20.3
2018-04-23T04:33:34.007Z,20.3
2018-04-23T04:34:24.082Z,20.3
2018-04-23T04:35:14.119Z,20.3
2018-04-23T04:36:03.906Z,20.2
2018-04-23T04:36:54.269Z,20.2
2018-04-23T04:37:44.361Z,20.2
2018-04-23T04:38:34.109Z,20.2
2018-04-23T04:39:24.450Z,20.2
2018-04-23T04:40:14.239Z,20.2
2018-04-23T04:41:04.605Z,20.1
2018-04-23T04:41:54.645Z,20.2
2018-04-23T04:42:44.739Z,20.1
2018-04-23T04:43:34.496Z,20.1
2018-04-23T04:44:24.847Z,20.1
2018-04-23T04:45:14.911Z,20.1
2018-04-23T04:46:04.985Z,20.1
2018-04-23T04:46:55.039Z,20.1
2018-04-23T04:47:45.147Z,20.1
2018-04-23T04:48:35.171Z,20.1
2018-04-23T04:49:25.238Z,20.1
2018-04-23T04:50:15.294Z,20.1
2018-04-23T04:51:05.354Z,20.1
2018-04-23T04:51:55.421Z,20.1
2018-04-23T04:52:45.176Z,20.1
2018-04-23T04:53:35.533Z,20.1
2018-04-23T04:54:25.646Z,20.1
2018-04-23T04:55:15.672Z,20.1
2018-04-23T04:56:05.739Z,20.1
2018-04-23T04:56:55.509Z,20.1
2018-04-23T04:57:45.563Z,20.1
2018-04-23T04:58:35.906Z,20.1
2018-04-23T04:59:25.986Z,20.1
2018-04-23T05:00:16.045Z,20.1
2018-04-23T05:01:06.112Z,20.1
2018-04-23T05:01:56.175Z,20.1
2018-04-23T05:02:46.232Z,20.1
2018-04-23T07:13:31.713Z,49.5
2018-04-23T07:14:21.738Z,49.6
2018-04-23T07:15:11.847Z,49.6
2018-04-23T07:16:01.886Z,49.6
2018-04-23T07:16:51.958Z,49.7
2018-04-23T07:17:41.986Z,49.8
2018-04-23T07:18:32.113Z,49.9
2018-04-23T07:19:22.126Z,50.1
2018-04-23T07:20:12.200Z,50.3
2018-04-23T07:21:01.683Z,50.6
2018-04-23T07:21:52.045Z,50.8
2018-04-23T07:22:42.386Z,50.9
2018-04-23T07:23:32.479Z,51.1
2018-04-23T07:24:22.519Z,51.2
2018-04-23T07:25:12.583Z,51.3
2018-04-23T07:26:02.377Z,51.4
2018-04-23T07:26:52.425Z,51.6
2018-04-23T07:27:42.496Z,51.7
2018-04-23T07:28:32.886Z,51.9
2018-04-23T07:29:23.332Z,52
2018-04-23T07:30:12.492Z,52.2
2018-04-23T07:31:03.071Z,52.3
2018-04-23T07:32:43.163Z,52.5
2018-04-23T07:33:32.671Z,52.6
2018-04-23T07:34:23.293Z,52.8
2018-04-23T07:35:13.073Z,52.9
2018-04-23T07:36:02.944Z,53
2018-04-23T07:36:52.947Z,53.1
2018-04-23T07:37:42.787Z,53.2
2018-04-23T07:38:33.613Z,53.3
2018-04-23T07:39:23.707Z,53.4
2018-04-23T07:40:13.742Z,53.6
2018-04-23T07:41:03.806Z,53.7
2018-04-23T07:41:53.605Z,53.8
2018-04-23T07:42:43.380Z,53.9
2018-04-23T07:43:34.005Z,54.1
2018-04-23T07:44:23.774Z,54.1
2018-04-23T07:45:13.568Z,54.3
2018-04-23T07:46:03.634Z,54.4
2018-04-23T07:46:54.247Z,54.5
2018-04-23T07:47:44.346Z,54.6
2018-04-23T07:48:33.824Z,54.8
2018-04-23T07:49:24.457Z,54.8
2018-04-23T07:50:14.265Z,54.9
2018-04-23T07:51:04.614Z,55.1
2018-04-23T07:51:54.372Z,55.3
2018-04-23T07:52:44.713Z,55.4
2018-04-23T07:53:34.518Z,55.6
2018-04-23T07:54:24.598Z,55.7
2018-04-23T07:55:14.909Z,55.9
2018-04-23T07:56:04.423Z,56.1
2018-04-23T07:56:55.065Z,56.1
2018-04-23T07:57:44.836Z,56.3
2018-04-23T07:58:35.160Z,56.4
2018-04-23T07:59:25.262Z,56.5
2018-04-23T08:00:14.755Z,56.6
2018-04-23T08:01:05.100Z,56.8
2018-04-23T08:01:55.447Z,56.9
2018-04-23T08:02:44.956Z,57.1
2018-04-23T08:03:35.279Z,57.3
2018-04-23T08:04:25.375Z,57.4
2018-04-23T08:05:15.704Z,57.6
2018-04-23T08:06:05.517Z,57.6
2018-04-23T08:06:56.191Z,57.7
2018-04-23T08:07:45.875Z,57.7
2018-04-23T08:08:35.975Z,57.7
2018-04-23T08:09:26.013Z,57.7
2018-04-23T08:10:16.071Z,57.7
2018-04-23T08:11:56.232Z,57.9
2018-04-23T08:12:46.277Z,58
2018-04-23T08:13:35.771Z,58.2
2018-04-23T08:14:25.557Z,58.4
2018-04-23T08:15:16.197Z,58.4
2018-04-23T08:16:56.323Z,58.7
2018-04-23T08:17:46.086Z,58.7
2018-04-23T08:18:35.689Z,58.8
2018-04-23T08:19:26.316Z,58.9
2018-04-23T08:20:16.114Z,58.9
2018-04-23T08:21:06.656Z,59
2018-04-23T08:21:56.730Z,59.1
2018-04-23T08:22:47.092Z,59.2
2018-04-23T08:23:37.191Z,59.3
2018-04-23T08:24:27.225Z,59.4
2018-04-23T08:25:16.706Z,59.5
2018-04-23T08:26:07.045Z,59.6
2018-04-23T08:26:56.808Z,59.7
2018-04-23T08:27:46.921Z,59.8
2018-04-23T08:28:37.517Z,59.9
2018-04-23T08:29:27.363Z,60
2018-04-23T08:30:17.672Z,60.1
2018-04-23T08:31:07.764Z,60.2
2018-04-23T08:31:58.020Z,60.3
2018-04-23T08:32:47.830Z,60.4
2018-04-23T08:33:37.059Z,60.6
2018-04-23T08:34:27.687Z,60.6
2018-04-23T08:35:18.025Z,60.8
2018-04-23T08:36:07.553Z,60.9
2018-04-23T08:36:58.182Z,60.9
2018-04-23T08:37:47.674Z,61.1
2018-04-23T08:38:38.026Z,61.1
2018-04-23T08:39:27.800Z,61.2
2018-04-23T08:40:17.614Z,61.3
2018-04-23T08:41:08.495Z,61.3
2018-04-23T08:41:58.569Z,61.4
2018-04-23T08:42:48.631Z,61.5
2018-04-23T08:43:38.708Z,61.6
2018-04-23T08:44:28.748Z,61.7
2018-04-23T08:45:18.790Z,61.8
2018-04-23T08:46:08.603Z,61.9
2018-04-23T08:46:58.661Z,62
2018-04-23T08:47:49.019Z,62.1
2018-04-23T08:48:39.078Z,62.2
2018-04-23T08:49:29.135Z,62.3
2018-04-23T08:50:19.205Z,62.4
2018-04-23T08:51:08.979Z,62.4
2018-04-23T08:51:59.341Z,62.5
2018-04-23T08:52:49.407Z,62.6
2018-04-23T08:53:39.495Z,62.6
2018-04-23T08:54:29.523Z,62.6
2018-04-23T08:55:19.344Z,62.7
2018-04-23T08:56:09.390Z,62.8
2018-04-23T08:56:59.464Z,62.9
2018-04-23T08:57:49.785Z,63.1
2018-04-23T08:58:39.863Z,63.1
2018-04-23T08:59:29.415Z,63.2
2018-04-23T09:00:20.214Z,63.3
2018-04-23T09:01:10.074Z,63.4
2018-04-23T09:01:59.874Z,63.4
2018-04-23T09:02:50.199Z,63.5
2018-04-23T09:03:40.276Z,63.6
2018-04-23T09:04:30.353Z,63.6
2018-04-23T09:05:20.129Z,63.7
2018-04-23T09:06:09.914Z,63.8
2018-04-23T09:07:00.226Z,63.9
2018-04-23T09:07:50.330Z,63.9
2018-04-23T09:08:40.677Z,64.1
2018-04-23T09:09:30.465Z,64.1
2018-04-23T09:10:20.531Z,64.2
2018-04-23T09:11:10.854Z,64.3
2018-04-23T09:12:00.939Z,64.4
2018-04-23T09:12:50.716Z,64.5
2018-04-23T09:13:40.499Z,64.7
2018-04-23T09:14:31.161Z,64.8
2018-04-23T09:15:21.189Z,64.9
2018-04-23T09:16:10.984Z,64.9
2018-04-23T09:17:01.304Z,64.8
2018-04-23T09:17:51.762Z,64.8
2018-04-23T09:18:41.430Z,64.8
2018-04-23T09:19:31.529Z,64.8
2018-04-23T09:20:21.014Z,64.8
2018-04-23T09:21:11.360Z,64.9
2018-04-23T09:22:01.154Z,65.1
2018-04-23T09:22:51.785Z,65.2
2018-04-23T09:23:41.609Z,65.3
2018-04-23T09:24:31.924Z,65.4
2018-04-23T09:25:21.703Z,65.4
2018-04-23T09:26:12.059Z,65.5
2018-04-23T09:27:01.560Z,65.6
2018-04-23T09:27:51.610Z,65.6
2018-04-23T09:28:42.260Z,65.6
2018-04-23T09:29:32.032Z,65.6
2018-04-23T09:30:22.386Z,65.8
2018-04-23T09:31:12.421Z,65.8
2018-04-23T09:32:02.232Z,65.8
2018-04-23T09:32:52.297Z,65.9
2018-04-23T09:33:42.056Z,65.9
2018-04-23T09:34:32.677Z,65.9
2018-04-23T09:35:22.474Z,65.9
2018-04-23T09:36:12.828Z,65.9
2018-04-23T09:37:02.393Z,66.1
2018-04-23T09:37:52.656Z,66.1
2018-04-23T09:38:42.723Z,66.1
2018-04-23T09:39:32.515Z,66.1
2018-04-23T09:40:22.477Z,66.2
2018-04-23T09:41:12.919Z,66.3
2018-04-23T09:42:02.979Z,66.3
2018-04-23T09:42:53.323Z,66.3
2018-04-23T09:43:43.121Z,66.3
2018-04-23T09:44:33.287Z,66.4
2018-04-23T09:45:23.562Z,66.4
2018-04-23T09:46:13.109Z,66.5
2018-04-23T09:47:03.426Z,66.6
2018-04-23T09:47:53.746Z,66.7
2018-04-23T09:48:43.248Z,66.8
2018-04-23T09:49:33.577Z,66.9
2018-04-23T09:50:23.923Z,66.9
2018-04-23T09:51:14.013Z,66.9
2018-04-23T09:52:04.106Z,66.9
2018-04-23T09:52:53.858Z,66.9
2018-04-23T09:53:43.926Z,66.9
2018-04-23T09:54:34.305Z,66.9
2018-04-23T09:55:24.026Z,67
2018-04-23T09:56:14.381Z,67.2
2018-04-23T09:57:04.457Z,67.3
2018-04-23T09:57:54.250Z,67.4
2018-04-23T09:58:44.835Z,67.5
2018-04-23T09:59:33.893Z,67.6
2018-04-23T10:00:24.697Z,67.6
2018-04-23T10:01:14.779Z,67.6
2018-04-23T10:02:04.842Z,67.6
2018-04-23T10:02:54.930Z,67.7
2018-04-23T10:03:44.689Z,67.8
2018-04-23T10:04:34.787Z,67.8
2018-04-23T10:05:25.122Z,67.9
2018-04-23T10:06:15.211Z,68
2018-04-23T10:07:04.986Z,68.1
2018-04-23T10:07:55.031Z,68.1
2018-04-23T10:08:45.371Z,68.2
2018-04-23T10:09:35.448Z,68.3
2018-04-23T10:10:25.479Z,68.3
2018-04-23T10:11:15.570Z,68.4
2018-04-23T10:12:05.715Z,68.4
2018-04-23T10:12:55.700Z,68.5
2018-04-23T10:13:45.460Z,68.6
2018-04-23T10:14:35.839Z,68.6
2018-04-23T10:15:25.343Z,68.7
2018-04-23T10:16:15.962Z,68.7
2018-04-23T10:17:06.014Z,68.7
2018-04-23T10:17:55.518Z,68.7
2018-04-23T10:18:46.136Z,68.8
2018-04-23T10:19:36.206Z,68.8
2018-04-23T10:20:26.288Z,68.8
2018-04-23T10:21:16.337Z,68.9
2018-04-23T10:22:06.137Z,68.9
2018-04-23T10:22:56.474Z,68.9
2018-04-23T10:23:46.323Z,68.9
2018-04-23T10:24:36.067Z,69
2018-04-23T10:25:26.183Z,69
2018-04-23T10:26:16.754Z,69.1
2018-04-23T10:27:06.790Z,69.1
2018-04-23T10:27:56.869Z,69.1
2018-04-23T10:28:46.642Z,69.2
2018-04-23T10:29:36.736Z,69.2
2018-04-23T10:30:27.096Z,69.2
2018-04-23T10:31:17.134Z,69.3
2018-04-23T10:32:06.938Z,69.3
2018-04-23T10:32:57.118Z,69.3
2018-04-23T10:33:47.380Z,69.3
2018-04-23T10:34:37.391Z,69.4
2018-04-23T10:35:27.464Z,69.4
2018-04-23T10:36:17.523Z,69.4
2018-04-23T10:37:07.597Z,69.4
2018-04-23T10:37:57.669Z,69.4
2018-04-23T10:38:47.439Z,69.5
2018-04-23T10:39:37.777Z,69.6
2018-04-23T10:40:27.848Z,69.5
2018-04-23T10:41:17.901Z,69.5
2018-04-23T10:42:07.987Z,69.5
2018-04-23T10:42:58.047Z,69.5
2018-04-23T10:43:48.092Z,69.4
2018-04-23T10:44:37.633Z,69.5
2018-04-23T10:45:28.379Z,69.5
2018-04-23T10:46:17.748Z,69.4
2018-04-23T10:47:08.362Z,69.5
2018-04-23T10:47:58.435Z,69.4
2018-04-23T10:48:48.530Z,69.5
2018-04-23T10:49:37.999Z,69.5
2018-04-23T10:50:28.647Z,69.6
2018-04-23T10:51:18.689Z,69.6
2018-04-23T10:52:08.471Z,69.6
2018-04-23T10:52:58.577Z,69.6
2018-04-23T10:53:48.879Z,69.6
2018-04-23T10:54:38.705Z,69.5
2018-04-23T10:55:29.041Z,69.5
2018-04-23T10:56:18.801Z,69.4
2018-04-23T10:57:08.904Z,69.5
2018-04-23T10:57:59.211Z,69.5
2018-04-23T10:58:49.311Z,69.6
2018-04-23T10:59:39.087Z,69.6
2018-04-23T11:00:29.145Z,69.6
2018-04-23T11:01:18.928Z,69.7
2018-04-23T11:02:09.577Z,69.6
2018-04-23T11:02:58.846Z,69.6
2018-04-23T11:03:49.205Z,69.6
2018-04-23T11:04:38.912Z,69.6
2018-04-23T11:05:29.824Z,69.6
2018-04-23T11:06:19.854Z,69.6
2018-04-23T11:07:09.947Z,69.7
2018-04-23T11:07:59.987Z,69.8
2018-04-23T11:08:50.080Z,69.8
2018-04-23T11:09:40.232Z,69.7
2018-04-23T11:10:30.184Z,69.7
2018-04-23T11:11:20.280Z,69.6
2018-04-23T11:12:10.327Z,69.6
2018-04-23T11:12:59.363Z,69.6
2018-04-23T11:13:50.179Z,69.6
2018-04-23T11:14:39.984Z,69.6
2018-04-23T11:15:30.325Z,69.6
2018-04-23T11:16:20.665Z,69.6
2018-04-23T11:17:09.890Z,69.7
2018-04-23T11:18:00.503Z,69.7
2018-04-23T11:18:50.589Z,69.7
2018-04-23T11:19:40.952Z,69.7
2018-04-23T11:20:30.726Z,69.6
2018-04-23T11:21:20.794Z,69.6
2018-04-23T11:22:10.863Z,69.6
2018-04-23T11:23:00.946Z,69.6
2018-04-23T11:23:50.683Z,69.6
2018-04-23T11:24:41.060Z,69.6
2018-04-23T11:25:30.621Z,69.6
2018-04-23T11:26:21.473Z,69.5
2018-04-23T11:27:11.250Z,69.5
2018-04-23T11:28:01.312Z,69.5
2018-04-23T11:28:51.643Z,69.6
2018-04-23T11:29:41.455Z,69.6
2018-04-23T11:30:31.508Z,69.6
2018-04-23T11:31:21.841Z,69.6
2018-04-23T11:32:11.398Z,69.6
2018-04-23T11:33:01.721Z,69.6
2018-04-23T11:33:52.094Z,69.6
2018-04-23T11:34:41.823Z,69.6
2018-04-23T11:35:32.205Z,69.6
2018-04-23T11:36:22.244Z,69.6
2018-04-23T11:37:12.325Z,69.6
2018-04-23T11:38:01.832Z,69.6
2018-04-23T11:38:51.972Z,69.5
2018-04-23T11:39:41.981Z,69.4
2018-04-23T11:40:32.286Z,69.3
2018-04-23T11:41:22.372Z,69.3
2018-04-23T11:42:12.429Z,69.3
2018-04-23T11:43:02.269Z,69.3
2018-04-23T11:43:52.561Z,69.3
2018-04-23T11:44:42.619Z,69.3
2018-04-23T11:45:32.949Z,69.3
2018-04-23T11:46:22.497Z,69.3
2018-04-23T11:47:13.136Z,69.2
2018-04-23T11:48:03.164Z,69.2
2018-04-23T11:48:53.267Z,69.2
2018-04-23T11:49:42.734Z,69.2
2018-04-23T11:50:33.394Z,69.2
2018-04-23T11:51:23.154Z,69.2
2018-04-23T11:52:12.649Z,69.2
2018-04-23T11:53:03.823Z,69.1
2018-04-23T11:53:53.663Z,69.1
2018-04-23T11:54:43.144Z,69.1
2018-04-23T11:55:33.766Z,69.1
2018-04-23T11:56:23.557Z,69.1
2018-04-23T11:57:13.882Z,69.1
2018-04-23T11:58:03.691Z,69.1
2018-04-23T11:58:54.051Z,69.1
2018-04-23T11:59:44.286Z,69.1
2018-04-23T12:00:33.866Z,69
2018-04-23T12:01:23.961Z,69
2018-04-23T12:02:14.268Z,68.9
2018-04-23T12:03:04.410Z,68.9
2018-04-23T12:03:54.397Z,68.9
2018-04-23T12:04:44.481Z,68.8
2018-04-23T12:05:34.553Z,68.8
2018-04-23T12:06:23.476Z,68.8
2018-04-23T12:07:14.395Z,68.8
2018-04-23T12:08:03.898Z,68.8
2018-04-23T12:08:53.672Z,68.8
2018-04-23T12:09:44.119Z,68.8
2018-04-23T12:10:34.092Z,68.7
2018-04-23T12:11:25.021Z,68.7
2018-04-23T12:12:14.640Z,68.6
2018-04-23T12:13:04.894Z,68.6
2018-04-23T12:13:54.077Z,68.5
2018-04-23T12:14:44.990Z,68.4
2018-04-23T12:15:35.048Z,68.4
2018-04-23T12:16:25.380Z,68.4
2018-04-23T12:17:15.482Z,68.3
2018-04-23T12:18:05.241Z,68.3
2018-04-23T12:18:55.293Z,68.3
2018-04-23T12:19:45.371Z,68.3
2018-04-23T12:20:34.878Z,68.3
2018-04-23T12:21:25.511Z,68.3
2018-04-23T12:22:15.312Z,68.1
2018-04-23T12:23:05.389Z,68.1
2018-04-23T12:23:55.974Z,68.1
2018-04-23T12:24:45.239Z,68
2018-04-23T12:25:36.101Z,67.9
2018-04-23T12:26:26.176Z,67.9
2018-04-23T12:27:16.249Z,67.8
2018-04-23T12:28:06.021Z,67.8
2018-04-23T12:28:56.383Z,67.8
2018-04-23T12:29:46.164Z,67.7
2018-04-23T12:30:36.521Z,67.7
2018-04-23T12:31:26.565Z,67.6
2018-04-23T12:32:16.395Z,67.6
2018-04-23T12:33:06.740Z,67.6
2018-04-23T12:33:56.819Z,67.5
2018-04-23T12:34:46.595Z,67.4
2018-04-23T12:35:36.670Z,67.4
2018-04-23T12:36:26.709Z,67.3
2018-04-23T12:37:17.068Z,67.2
2018-04-23T12:38:07.184Z,67.1
2018-04-23T12:38:56.905Z,67
2018-04-23T12:39:46.816Z,67
2018-04-23T12:40:37.307Z,66.9
2018-04-23T12:41:27.380Z,66.8
2018-04-23T12:42:16.873Z,66.7
2018-04-23T12:43:07.229Z,66.6
2018-04-23T12:43:57.293Z,66.6
2018-04-23T12:45:02.027Z,66.5
2018-04-23T12:45:37.720Z,66.4
2018-04-23T12:46:26.942Z,66.3
2018-04-23T12:47:17.814Z,66.2
2018-04-23T12:48:07.893Z,66.1
2018-04-23T12:48:57.971Z,65.9
2018-04-23T12:49:47.501Z,65.9
2018-04-23T12:50:38.102Z,65.8
2018-04-23T12:51:28.158Z,65.8
2018-04-23T12:52:18.256Z,65.7
2018-04-23T12:53:08.282Z,65.6
2018-04-23T12:53:58.064Z,65.6
2018-04-23T12:54:48.427Z,65.6
2018-04-23T12:55:38.472Z,65.5
2018-04-23T12:56:28.582Z,65.4
2018-04-23T12:57:18.334Z,65.4
2018-04-23T12:58:08.676Z,65.3
2018-04-23T12:58:58.762Z,65.3
2018-04-23T12:59:48.529Z,65.3
2018-04-23T13:00:38.881Z,65.2
2018-04-23T13:01:28.939Z,65.1
2018-04-23T13:02:18.441Z,65.1
2018-04-23T13:03:09.085Z,65.1
2018-04-23T13:03:59.142Z,65.1
2018-04-23T13:04:49.214Z,65
2018-04-23T13:05:38.999Z,65
2018-04-23T13:06:29.323Z,64.9
2018-04-23T13:07:19.403Z,64.9
2018-04-23T13:08:09.208Z,64.9
2018-04-23T13:08:58.983Z,64.8
2018-04-23T13:09:49.335Z,64.8
2018-04-23T13:10:39.669Z,64.7
2018-04-23T13:11:29.182Z,64.7
2018-04-23T13:12:20.047Z,64.6
2018-04-23T13:13:09.302Z,64.6
2018-04-23T13:13:59.660Z,64.5
2018-04-23T13:14:49.990Z,64.5
2018-04-23T13:15:39.219Z,64.4
2018-04-23T13:16:30.134Z,64.3
2018-04-23T13:17:20.268Z,64.3
2018-04-23T13:18:10.003Z,64.2
2018-04-23T13:19:00.327Z,64.1
2018-04-23T13:19:50.107Z,64.1
2018-04-23T13:20:40.447Z,64
2018-04-23T13:21:30.565Z,63.8
2018-04-23T13:22:20.029Z,63.8
2018-04-23T13:23:10.353Z,63.6
2018-04-23T13:24:00.753Z,63.5
2018-04-23T13:24:50.787Z,63.4
2018-04-23T13:25:40.829Z,63.3
2018-04-23T13:26:30.888Z,63.3
2018-04-23T13:27:20.421Z,63.2
2018-04-23T13:28:11.043Z,63.1
2018-04-23T13:29:00.847Z,63.1
2018-04-23T13:29:50.891Z,62.9